Time;durP1;ratioP1;P1;durP2;ratioP2;P2;SDS_P1;SDS_P2;PMS_P1;PMS_P2;Temp;Humidity;BMP_temperature;BMP_pressure;BME280_temperature;BME280_humidity;BME280_pressure;Samples;Min_cycle;Max_cycle;Signal;HPM_P1;HPM_P2
2022/07/26 00:00:21;;;;;;;7.97;3.30;;;;;;;;;;4987561;28;20247;-72
2022/07/26 00:02:48;;;;;;;10.17;3.30;;;;;;;;;;4991173;28;20232;-72
2022/07/26 00:05:16;;;;;;;13.33;3.87;;;;;;;;;;4986951;28;20315;-72
2022/07/26 00:07:43;;;;;;;11.23;3.77;;;;;;;;;;4990272;28;20205;-72
2022/07/26 00:10:10;;;;;;;8.87;3.40;;;;;;;;;;4987072;28;20193;-72
2022/07/26 00:12:39;;;;;;;6.10;3.20;;;;;;;;;;4990317;28;20208;-73
2022/07/26 00:15:07;;;;;;;10.80;3.33;;;;;;;;;;4986196;28;20236;-72
2022/07/26 00:17:37;;;;;;;8.53;3.30;;;;;;;;;;4989470;28;20205;-72
2022/07/26 00:20:05;;;;;;;9.13;3.87;;;;;;;;;;4990107;28;20232;-73
2022/07/26 00:22:35;;;;;;;6.70;3.60;;;;;;;;;;4990421;28;20214;-72
2022/07/26 00:25:03;;;;;;;13.60;3.17;;;;;;;;;;4987276;28;20908;-72
2022/07/26 00:27:30;;;;;;;7.60;3.43;;;;;;;;;;4988926;28;20201;-72
2022/07/26 00:29:58;;;;;;;9.30;3.47;;;;;;;;;;4990276;28;20203;-72
2022/07/26 00:32:25;;;;;;;9.27;3.17;;;;;;;;;;4990073;28;20209;-72
2022/07/26 00:34:53;;;;;;;7.20;3.17;;;;;;;;;;4988849;28;20201;-74
2022/07/26 00:37:20;;;;;;;11.33;3.23;;;;;;;;;;4988539;28;20213;-72
2022/07/26 00:39:47;;;;;;;10.57;3.60;;;;;;;;;;4988669;28;20336;-73
2022/07/26 00:42:14;;;;;;;8.40;3.50;;;;;;;;;;4986557;28;20209;-72
2022/07/26 00:44:42;;;;;;;8.30;2.97;;;;;;;;;;4986770;28;20648;-73
2022/07/26 00:47:10;;;;;;;12.63;3.60;;;;;;;;;;4985317;28;20215;-73
2022/07/26 00:49:37;;;;;;;6.10;3.23;;;;;;;;;;4988256;28;20213;-74
2022/07/26 00:52:05;;;;;;;6.77;2.90;;;;;;;;;;4988859;28;20205;-73
2022/07/26 00:54:32;;;;;;;5.30;2.80;;;;;;;;;;4989793;28;20215;-73
2022/07/26 00:57:00;;;;;;;10.90;3.60;;;;;;;;;;4990355;28;20207;-73
2022/07/26 00:59:27;;;;;;;9.63;3.10;;;;;;;;;;4986479;28;20204;-72
2022/07/26 01:01:54;;;;;;;7.33;2.77;;;;;;;;;;4988083;28;20205;-73
2022/07/26 01:04:22;;;;;;;11.27;2.83;;;;;;;;;;4986273;28;20205;-73
2022/07/26 01:06:50;;;;;;;10.73;2.90;;;;;;;;;;4986551;28;20335;-73
2022/07/26 01:09:17;;;;;;;9.23;2.57;;;;;;;;;;4985163;28;20305;-73
2022/07/26 01:11:45;;;;;;;7.37;2.80;;;;;;;;;;4987672;28;20755;-73
2022/07/26 01:14:12;;;;;;;7.53;2.80;;;;;;;;;;4986229;28;20553;-73
2022/07/26 01:16:39;;;;;;;8.97;3.30;;;;;;;;;;4987421;28;20592;-72
2022/07/26 01:19:07;;;;;;;10.63;3.40;;;;;;;;;;4986937;28;20213;-73
2022/07/26 01:21:35;;;;;;;8.50;3.57;;;;;;;;;;4988427;28;20224;-73
2022/07/26 01:24:02;;;;;;;11.07;3.93;;;;;;;;;;4983095;28;20287;-73
2022/07/26 01:26:30;;;;;;;9.17;4.10;;;;;;;;;;4987525;28;20233;-73
2022/07/26 01:28:57;;;;;;;7.20;3.40;;;;;;;;;;4986111;28;21122;-73
2022/07/26 01:31:24;;;;;;;7.00;3.67;;;;;;;;;;4988484;28;20201;-73
2022/07/26 01:33:51;;;;;;;7.93;3.53;;;;;;;;;;4986029;28;20201;-72
2022/07/26 01:36:19;;;;;;;12.67;4.20;;;;;;;;;;4987544;28;20224;-73
2022/07/26 01:38:47;;;;;;;6.80;3.47;;;;;;;;;;4988168;28;20197;-72
2022/07/26 01:41:14;;;;;;;8.27;2.80;;;;;;;;;;4987919;28;20224;-73
2022/07/26 01:43:42;;;;;;;14.00;3.77;;;;;;;;;;4981335;28;20205;-73
2022/07/26 01:46:09;;;;;;;9.63;3.70;;;;;;;;;;4981248;28;20225;-73
2022/07/26 01:48:37;;;;;;;9.53;3.27;;;;;;;;;;4983117;28;20205;-73
2022/07/26 01:51:04;;;;;;;6.20;3.40;;;;;;;;;;4988750;28;20197;-73
2022/07/26 01:53:32;;;;;;;8.23;3.00;;;;;;;;;;4986241;28;20645;-73
2022/07/26 01:56:00;;;;;;;8.00;3.03;;;;;;;;;;4986969;28;20729;-73
2022/07/26 01:58:27;;;;;;;6.73;3.27;;;;;;;;;;4988269;28;20205;-73
2022/07/26 02:00:54;;;;;;;10.30;3.13;;;;;;;;;;4986683;28;20217;-73
2022/07/26 02:03:22;;;;;;;9.87;3.07;;;;;;;;;;4983289;28;21467;-73
2022/07/26 02:05:49;;;;;;;11.07;3.73;;;;;;;;;;4987341;28;20228;-73
2022/07/26 02:08:16;;;;;;;10.73;3.43;;;;;;;;;;4985453;28;20332;-73
2022/07/26 02:11:01;;;;;;;6.87;3.10;;;;;;;;;;4986290;28;20587;-73
2022/07/26 02:13:31;;;;;;;17.77;4.37;;;;;;;;;;4986628;28;20201;-74
2022/07/26 02:15:58;;;;;;;8.97;3.13;;;;;;;;;;4987723;28;20224;-74
2022/07/26 02:18:26;;;;;;;4.27;2.50;;;;;;;;;;4987131;28;20559;-73
2022/07/26 02:20:54;;;;;;;11.17;2.67;;;;;;;;;;4984966;28;20306;-73
2022/07/26 02:23:22;;;;;;;7.80;2.90;;;;;;;;;;4984663;28;20215;-73
2022/07/26 02:25:49;;;;;;;11.97;2.77;;;;;;;;;;4984589;28;20782;-72
2022/07/26 02:28:17;;;;;;;6.93;2.87;;;;;;;;;;4985357;28;20671;-72
2022/07/26 02:30:46;;;;;;;5.73;2.87;;;;;;;;;;4987840;28;20203;-73
2022/07/26 02:33:13;;;;;;;12.63;2.93;;;;;;;;;;4985652;28;20204;-72
2022/07/26 02:35:41;;;;;;;15.43;3.00;;;;;;;;;;4986353;28;20231;-72
2022/07/26 02:38:09;;;;;;;7.77;2.90;;;;;;;;;;4983714;28;20203;-72
2022/07/26 02:40:37;;;;;;;11.87;2.80;;;;;;;;;;4986140;28;20232;-72
2022/07/26 02:43:14;;;;;;;8.00;2.73;;;;;;;;;;4985492;28;20678;-73
2022/07/26 02:45:41;;;;;;;8.30;3.07;;;;;;;;;;4985068;28;20240;-74
2022/07/26 02:48:10;;;;;;;11.53;3.30;;;;;;;;;;4985550;28;20205;-72
2022/07/26 02:50:37;;;;;;;6.07;2.70;;;;;;;;;;4987276;28;20212;-73
2022/07/26 02:53:04;;;;;;;10.93;3.50;;;;;;;;;;4984288;28;20591;-74
2022/07/26 02:55:32;;;;;;;9.20;2.63;;;;;;;;;;4985931;28;20232;-73
2022/07/26 02:57:59;;;;;;;8.27;3.03;;;;;;;;;;4987155;28;20196;-73
2022/07/26 03:00:27;;;;;;;8.27;2.67;;;;;;;;;;4984670;28;20224;-73
2022/07/26 03:02:59;;;;;;;6.73;3.07;;;;;;;;;;4985113;28;20205;-74
2022/07/26 03:05:27;;;;;;;28.47;3.27;;;;;;;;;;4987493;28;20676;-74
2022/07/26 03:07:55;;;;;;;25.33;3.50;;;;;;;;;;4987859;28;20200;-74
2022/07/26 03:10:22;;;;;;;9.00;3.03;;;;;;;;;;4985582;28;20311;-74
2022/07/26 03:12:49;;;;;;;12.97;2.67;;;;;;;;;;4984409;28;20201;-73
2022/07/26 03:15:16;;;;;;;12.50;2.80;;;;;;;;;;4979797;28;20312;-73
2022/07/26 03:17:43;;;;;;;16.37;3.27;;;;;;;;;;4986482;28;20300;-74
2022/07/26 03:20:11;;;;;;;20.10;3.53;;;;;;;;;;4986587;28;20299;-74
2022/07/26 03:22:40;;;;;;;14.97;3.10;;;;;;;;;;4985780;28;20209;-74
2022/07/26 03:25:07;;;;;;;10.47;3.77;;;;;;;;;;4985865;28;20626;-75
2022/07/26 03:27:34;;;;;;;19.57;4.30;;;;;;;;;;4983621;28;20209;-73
2022/07/26 03:30:01;;;;;;;22.43;3.70;;;;;;;;;;4986364;28;20291;-74
2022/07/26 03:32:29;;;;;;;15.97;3.40;;;;;;;;;;4987008;28;20201;-73
2022/07/26 03:34:56;;;;;;;25.70;3.80;;;;;;;;;;4985076;28;20233;-73
2022/07/26 03:37:23;;;;;;;22.60;3.83;;;;;;;;;;4982592;28;20295;-74
2022/07/26 03:39:51;;;;;;;9.90;2.90;;;;;;;;;;4986545;28;20197;-74
2022/07/26 03:42:18;;;;;;;15.50;3.67;;;;;;;;;;4983255;28;20229;-74
2022/07/26 03:44:46;;;;;;;19.23;3.17;;;;;;;;;;4985659;28;20197;-74
2022/07/26 03:47:13;;;;;;;19.83;3.20;;;;;;;;;;4983429;28;20205;-74
2022/07/26 03:49:40;;;;;;;12.47;2.97;;;;;;;;;;4982267;28;20201;-74
2022/07/26 03:52:09;;;;;;;11.20;3.30;;;;;;;;;;4984587;28;20674;-74
2022/07/26 03:54:36;;;;;;;17.93;3.60;;;;;;;;;;4983322;28;20205;-74
2022/07/26 03:57:04;;;;;;;26.10;3.30;;;;;;;;;;4985042;28;20587;-75
2022/07/26 03:59:31;;;;;;;11.23;3.20;;;;;;;;;;4980739;28;20245;-74
2022/07/26 04:01:58;;;;;;;20.57;3.07;;;;;;;;;;4985036;28;20334;-74
2022/07/26 04:04:26;;;;;;;12.80;3.17;;;;;;;;;;4983766;28;20208;-74
2022/07/26 04:06:53;;;;;;;9.90;3.10;;;;;;;;;;4982393;28;20231;-74
2022/07/26 04:09:20;;;;;;;22.77;3.50;;;;;;;;;;4984045;28;20213;-74
2022/07/26 04:11:48;;;;;;;15.50;3.10;;;;;;;;;;4982174;28;20597;-73
2022/07/26 04:14:16;;;;;;;14.57;3.47;;;;;;;;;;4982824;28;20205;-75
2022/07/26 04:16:43;;;;;;;10.30;3.23;;;;;;;;;;4984183;28;20225;-74
2022/07/26 04:19:10;;;;;;;11.57;2.93;;;;;;;;;;4981504;28;20231;-73
2022/07/26 04:21:38;;;;;;;21.70;4.33;;;;;;;;;;4984755;28;20236;-74
2022/07/26 04:24:05;;;;;;;10.40;3.40;;;;;;;;;;4985832;28;20240;-75
2022/07/26 04:26:32;;;;;;;10.23;3.03;;;;;;;;;;4986206;28;20711;-74
2022/07/26 04:29:00;;;;;;;13.00;2.63;;;;;;;;;;4981432;28;20216;-74
2022/07/26 04:31:28;;;;;;;13.57;3.10;;;;;;;;;;4984466;28;20205;-73
2022/07/26 04:33:55;;;;;;;11.63;2.70;;;;;;;;;;4983407;28;20213;-75
2022/07/26 04:36:22;;;;;;;9.67;2.83;;;;;;;;;;4981608;28;20240;-74
2022/07/26 04:38:49;;;;;;;13.30;2.90;;;;;;;;;;4989397;28;20292;-75
2022/07/26 04:41:17;;;;;;;9.40;2.47;;;;;;;;;;4985955;28;20235;-75
2022/07/26 04:43:44;;;;;;;7.47;2.33;;;;;;;;;;4987610;28;20292;-74
2022/07/26 04:46:11;;;;;;;10.73;2.33;;;;;;;;;;4989085;28;20221;-74
2022/07/26 04:48:39;;;;;;;4.70;2.23;;;;;;;;;;4986601;28;20208;-74
2022/07/26 04:51:07;;;;;;;11.30;2.30;;;;;;;;;;4987235;28;20198;-74
2022/07/26 04:53:34;;;;;;;10.57;2.27;;;;;;;;;;4989229;28;20582;-75
2022/07/26 04:56:01;;;;;;;4.03;1.70;;;;;;;;;;4986187;28;20709;-74
2022/07/26 04:58:28;;;;;;;13.70;2.20;;;;;;;;;;4986719;28;20283;-75
2022/07/26 05:00:55;;;;;;;5.67;1.80;;;;;;;;;;4984855;28;20205;-74
2022/07/26 05:03:23;;;;;;;7.37;2.10;;;;;;;;;;4982748;28;20296;-74
2022/07/26 05:05:52;;;;;;;4.83;2.20;;;;;;;;;;4986964;28;20249;-74
2022/07/26 05:08:19;;;;;;;6.47;1.87;;;;;;;;;;4985568;28;20216;-74
2022/07/26 05:10:46;;;;;;;9.17;2.07;;;;;;;;;;4986687;28;20233;-74
2022/07/26 05:13:13;;;;;;;3.33;1.70;;;;;;;;;;4983628;28;20215;-74
2022/07/26 05:15:41;;;;;;;6.70;1.90;;;;;;;;;;4984068;28;20228;-74
2022/07/26 05:18:08;;;;;;;6.77;1.80;;;;;;;;;;4983951;28;20208;-75
2022/07/26 05:20:36;;;;;;;4.00;1.83;;;;;;;;;;4985332;28;20210;-74
2022/07/26 05:23:04;;;;;;;8.33;1.70;;;;;;;;;;4983686;28;20725;-74
2022/07/26 05:25:32;;;;;;;7.27;1.83;;;;;;;;;;4986130;28;20222;-75
2022/07/26 05:27:59;;;;;;;4.57;1.40;;;;;;;;;;4982376;28;20212;-75
2022/07/26 05:30:26;;;;;;;6.70;1.43;;;;;;;;;;4986465;28;20205;-74
2022/07/26 05:32:54;;;;;;;6.43;1.60;;;;;;;;;;4986893;28;20193;-73
2022/07/26 05:35:21;;;;;;;7.10;1.50;;;;;;;;;;4984853;28;20316;-74
2022/07/26 05:37:48;;;;;;;5.47;1.50;;;;;;;;;;4985255;28;20208;-75
2022/07/26 05:40:16;;;;;;;5.67;1.50;;;;;;;;;;4984762;28;21929;-75
2022/07/26 05:42:44;;;;;;;4.90;1.33;;;;;;;;;;4986337;28;20235;-74
2022/07/26 05:45:11;;;;;;;3.83;1.27;;;;;;;;;;4984540;28;20228;-74
2022/07/26 05:47:38;;;;;;;6.27;1.23;;;;;;;;;;4985627;28;20209;-74
2022/07/26 05:50:06;;;;;;;8.03;1.40;;;;;;;;;;4984545;28;20315;-74
2022/07/26 05:52:34;;;;;;;9.30;1.80;;;;;;;;;;4983754;28;20597;-74
2022/07/26 05:55:01;;;;;;;3.13;1.00;;;;;;;;;;4982037;28;20739;-74
2022/07/26 05:57:29;;;;;;;9.67;1.50;;;;;;;;;;4983126;28;20209;-73
2022/07/26 05:59:56;;;;;;;6.57;1.33;;;;;;;;;;4982700;28;20293;-73
2022/07/26 06:02:23;;;;;;;4.43;1.00;;;;;;;;;;4984792;28;20230;-74
2022/07/26 06:04:51;;;;;;;3.77;1.00;;;;;;;;;;4989652;28;20298;-74
2022/07/26 06:07:18;;;;;;;4.17;1.17;;;;;;;;;;4987376;28;20208;-74
2022/07/26 06:09:45;;;;;;;4.90;0.80;;;;;;;;;;4989243;28;20199;-74
2022/07/26 06:12:12;;;;;;;1.47;0.70;;;;;;;;;;4983282;28;20879;-74
2022/07/26 06:14:41;;;;;;;4.60;1.10;;;;;;;;;;4980894;28;20687;-74
2022/07/26 06:17:08;;;;;;;3.03;1.30;;;;;;;;;;4983402;28;20202;-74
2022/07/26 06:19:35;;;;;;;7.80;1.00;;;;;;;;;;4981323;28;20654;-74
2022/07/26 06:22:02;;;;;;;8.43;1.70;;;;;;;;;;4983652;28;20362;-74
2022/07/26 06:24:29;;;;;;;11.13;1.77;;;;;;;;;;4983548;28;20295;-73
2022/07/26 06:26:57;;;;;;;9.10;1.83;;;;;;;;;;4981912;28;20225;-73
2022/07/26 06:29:24;;;;;;;7.50;1.70;;;;;;;;;;4986629;28;20298;-73
2022/07/26 06:31:53;;;;;;;5.13;1.57;;;;;;;;;;4981816;28;20546;-73
2022/07/26 06:34:20;;;;;;;5.40;1.57;;;;;;;;;;4976929;28;20196;-74
2022/07/26 06:36:47;;;;;;;6.93;1.70;;;;;;;;;;4981278;28;20230;-74
2022/07/26 06:39:14;;;;;;;6.60;1.30;;;;;;;;;;4986078;28;20575;-74
2022/07/26 06:41:41;;;;;;;7.13;1.80;;;;;;;;;;4986144;28;20794;-74
2022/07/26 06:44:08;;;;;;;7.90;2.10;;;;;;;;;;4983521;28;20216;-74
2022/07/26 06:46:36;;;;;;;6.37;1.97;;;;;;;;;;4982296;28;20664;-73
2022/07/26 06:49:04;;;;;;;5.43;2.50;;;;;;;;;;4981737;28;20300;-73
2022/07/26 06:51:32;;;;;;;12.13;3.20;;;;;;;;;;4976753;28;20705;-73
2022/07/26 06:53:59;;;;;;;10.20;3.20;;;;;;;;;;4980705;28;20211;-73
2022/07/26 06:56:26;;;;;;;5.70;3.00;;;;;;;;;;4983581;28;20229;-73
2022/07/26 06:58:55;;;;;;;9.07;3.30;;;;;;;;;;4983517;28;20567;-73
2022/07/26 07:01:22;;;;;;;7.90;3.40;;;;;;;;;;4981464;28;20205;-73
2022/07/26 07:03:49;;;;;;;8.97;3.50;;;;;;;;;;4985561;28;20255;-73
2022/07/26 07:06:18;;;;;;;8.40;3.03;;;;;;;;;;4983244;28;20269;-73
2022/07/26 07:08:45;;;;;;;7.77;3.10;;;;;;;;;;4987556;28;20292;-73
2022/07/26 07:11:12;;;;;;;6.07;3.67;;;;;;;;;;4984545;28;20221;-73
2022/07/26 07:13:46;;;;;;;9.43;3.70;;;;;;;;;;4988523;28;20621;-73
2022/07/26 07:16:13;;;;;;;8.90;3.93;;;;;;;;;;4980889;28;20221;-73
2022/07/26 07:18:41;;;;;;;9.93;3.90;;;;;;;;;;4987008;28;20602;-73
2022/07/26 07:21:08;;;;;;;11.30;3.83;;;;;;;;;;4983806;28;20209;-73
2022/07/26 07:23:36;;;;;;;14.53;3.23;;;;;;;;;;4981132;28;20226;-73
2022/07/26 07:26:03;;;;;;;8.03;3.30;;;;;;;;;;4982772;28;20259;-73
2022/07/26 07:28:32;;;;;;;6.60;2.87;;;;;;;;;;4981969;28;20284;-73
2022/07/26 07:30:59;;;;;;;10.10;3.30;;;;;;;;;;4981043;28;20233;-73
2022/07/26 07:33:26;;;;;;;7.40;2.87;;;;;;;;;;4986068;28;20259;-73
2022/07/26 07:35:54;;;;;;;10.20;3.20;;;;;;;;;;4985424;28;20228;-73
2022/07/26 07:38:21;;;;;;;11.87;2.80;;;;;;;;;;4988948;28;20580;-73
2022/07/26 07:40:49;;;;;;;7.23;3.50;;;;;;;;;;4987199;28;20209;-74
2022/07/26 07:43:17;;;;;;;6.97;2.90;;;;;;;;;;4978948;28;20233;-73
2022/07/26 07:45:44;;;;;;;5.30;3.10;;;;;;;;;;4984739;28;20717;-72
2022/07/26 07:48:11;;;;;;;9.53;3.07;;;;;;;;;;4978592;28;20213;-71
2022/07/26 07:50:38;;;;;;;6.70;3.37;;;;;;;;;;4985038;28;20201;-74
2022/07/26 07:53:05;;;;;;;4.70;2.77;;;;;;;;;;4983799;28;20197;-73
2022/07/26 07:55:32;;;;;;;5.13;3.00;;;;;;;;;;4987115;28;20233;-74
2022/07/26 07:58:01;;;;;;;10.23;2.87;;;;;;;;;;4984064;28;20210;-74
2022/07/26 08:00:28;;;;;;;4.87;3.00;;;;;;;;;;4987513;28;20205;-74
2022/07/26 08:02:55;;;;;;;7.80;3.37;;;;;;;;;;4990928;28;20335;-73
2022/07/26 08:05:22;;;;;;;6.67;3.17;;;;;;;;;;4989678;28;20235;-73
2022/07/26 08:07:50;;;;;;;6.90;4.00;;;;;;;;;;4986979;28;20292;-73
2022/07/26 08:10:17;;;;;;;7.37;3.83;;;;;;;;;;4987669;28;20300;-73
2022/07/26 08:12:44;;;;;;;7.80;3.63;;;;;;;;;;4989774;28;20395;-72
2022/07/26 08:15:13;;;;;;;7.90;3.20;;;;;;;;;;4991483;28;20315;-73
2022/07/26 08:17:40;;;;;;;9.20;3.50;;;;;;;;;;4991213;28;20205;-74
2022/07/26 08:20:08;;;;;;;8.20;3.40;;;;;;;;;;4993240;28;20684;-73
2022/07/26 08:22:35;;;;;;;8.60;3.80;;;;;;;;;;4988866;28;20229;-73
2022/07/26 08:25:03;;;;;;;10.50;3.97;;;;;;;;;;4991566;28;20292;-72
2022/07/26 08:27:30;;;;;;;8.73;4.40;;;;;;;;;;4991811;28;20295;-72
2022/07/26 08:29:57;;;;;;;7.07;3.83;;;;;;;;;;4993551;28;20201;-72
2022/07/26 08:32:25;;;;;;;5.97;3.43;;;;;;;;;;4991496;28;20204;-73
2022/07/26 08:34:52;;;;;;;7.40;3.93;;;;;;;;;;4991580;28;20651;-72
2022/07/26 08:37:20;;;;;;;9.67;4.10;;;;;;;;;;4990129;28;20298;-73
2022/07/26 08:39:48;;;;;;;17.13;4.70;;;;;;;;;;4991552;28;20361;-73
2022/07/26 08:42:15;;;;;;;7.87;3.93;;;;;;;;;;4984314;28;20225;-72
2022/07/26 08:44:44;;;;;;;9.63;3.40;;;;;;;;;;4984346;28;20219;-73
2022/07/26 08:47:12;;;;;;;6.13;3.40;;;;;;;;;;4989477;28;20243;-72
2022/07/26 08:49:40;;;;;;;8.87;3.50;;;;;;;;;;4984942;28;20220;-73
2022/07/26 08:52:08;;;;;;;8.60;3.40;;;;;;;;;;4986593;28;20301;-71
2022/07/26 08:54:35;;;;;;;8.80;3.80;;;;;;;;;;4985999;28;20210;-73
2022/07/26 08:57:03;;;;;;;9.47;4.70;;;;;;;;;;4992184;28;20300;-72
2022/07/26 08:59:30;;;;;;;11.03;4.83;;;;;;;;;;4987133;28;20208;-72
2022/07/26 09:01:58;;;;;;;10.13;5.33;;;;;;;;;;4983422;28;20212;-73
2022/07/26 09:04:26;;;;;;;10.80;5.30;;;;;;;;;;4978172;28;20213;-74
2022/07/26 09:07:05;;;;;;;16.47;5.50;;;;;;;;;;4979203;28;20243;-74
2022/07/26 09:09:33;;;;;;;11.93;5.53;;;;;;;;;;4989267;28;20634;-73
2022/07/26 09:12:13;;;;;;;13.23;6.70;;;;;;;;;;4987237;28;20670;-73
2022/07/26 09:15:05;;;;;;;15.47;6.77;;;;;;;;;;4991294;28;20204;-74
2022/07/26 09:17:39;;;;;;;12.60;7.13;;;;;;;;;;4984629;28;20220;-75
2022/07/26 09:20:34;;;;;;;16.53;6.30;;;;;;;;;;4988209;28;20303;-74
2022/07/26 09:23:06;;;;;;;10.90;6.17;;;;;;;;;;4985932;28;20319;-73
2022/07/26 09:25:34;;;;;;;11.90;6.50;;;;;;;;;;4985998;28;20633;-73
2022/07/26 09:28:01;;;;;;;12.73;6.30;;;;;;;;;;4985831;28;20200;-73
2022/07/26 09:30:29;;;;;;;10.97;6.57;;;;;;;;;;4984086;28;20208;-73
2022/07/26 09:33:01;;;;;;;13.67;6.67;;;;;;;;;;4986321;28;20201;-74
2022/07/26 09:35:29;;;;;;;10.93;6.77;;;;;;;;;;4979981;28;20225;-73
2022/07/26 09:37:56;;;;;;;11.83;6.53;;;;;;;;;;4990623;28;20624;-74
2022/07/26 09:40:31;;;;;;;11.67;6.30;;;;;;;;;;4986279;28;20240;-73
2022/07/26 09:43:00;;;;;;;13.13;7.63;;;;;;;;;;4988775;28;20607;-73
2022/07/26 09:45:28;;;;;;;11.70;7.27;;;;;;;;;;4987018;28;20323;-73
2022/07/26 09:47:55;;;;;;;13.33;7.20;;;;;;;;;;4985938;28;20304;-73
2022/07/26 09:50:23;;;;;;;13.73;7.37;;;;;;;;;;4983527;28;20215;-74
2022/07/26 09:53:06;;;;;;;12.53;6.90;;;;;;;;;;4984918;28;20264;-74
2022/07/26 09:55:36;;;;;;;15.00;8.00;;;;;;;;;;4983000;28;20229;-74
2022/07/26 09:58:05;;;;;;;14.83;7.93;;;;;;;;;;4986960;28;20208;-74
2022/07/26 10:00:35;;;;;;;13.73;7.87;;;;;;;;;;4987519;28;20283;-73
2022/07/26 10:03:02;;;;;;;13.80;7.63;;;;;;;;;;4986565;28;20612;-73
2022/07/26 10:05:29;;;;;;;13.50;7.93;;;;;;;;;;4983878;28;20746;-73
2022/07/26 10:07:58;;;;;;;14.60;7.63;;;;;;;;;;4986600;28;20202;-73
2022/07/26 10:10:28;;;;;;;14.20;7.77;;;;;;;;;;4984464;28;20268;-74
2022/07/26 10:12:58;;;;;;;14.37;7.33;;;;;;;;;;4986289;28;20544;-73
2022/07/26 10:15:34;;;;;;;14.83;7.43;;;;;;;;;;4984886;28;20229;-73
2022/07/26 10:18:01;;;;;;;12.03;6.80;;;;;;;;;;4988102;28;20807;-73
2022/07/26 10:20:49;;;;;;;14.00;6.77;;;;;;;;;;4986927;28;20483;-74
2022/07/26 10:23:36;;;;;;;12.23;7.10;;;;;;;;;;4976981;28;20308;-73
2022/07/26 10:26:03;;;;;;;13.43;7.27;;;;;;;;;;4990866;28;20252;-74
2022/07/26 10:28:32;;;;;;;10.43;6.77;;;;;;;;;;4983959;28;20239;-74
2022/07/26 10:31:28;;;;;;;11.93;7.13;;;;;;;;;;4986396;28;20263;-74
2022/07/26 10:33:56;;;;;;;10.43;6.23;;;;;;;;;;4954114;28;20674;-74
2022/07/26 10:36:24;;;;;;;12.97;6.07;;;;;;;;;;4982600;28;20680;-73
2022/07/26 10:39:09;;;;;;;10.63;6.07;;;;;;;;;;4982525;28;20679;-73
2022/07/26 10:41:37;;;;;;;9.67;6.23;;;;;;;;;;4983644;28;20284;-74
2022/07/26 10:44:14;;;;;;;12.00;5.70;;;;;;;;;;4978127;28;20224;-73
2022/07/26 10:46:55;;;;;;;8.60;5.30;;;;;;;;;;4977400;28;20229;-73
2022/07/26 10:49:27;;;;;;;14.90;7.10;;;;;;;;;;4986750;28;20286;-74
2022/07/26 10:52:05;;;;;;;9.03;5.90;;;;;;;;;;4984436;28;20690;-73
2022/07/26 10:54:33;;;;;;;10.43;5.90;;;;;;;;;;4984687;28;20327;-73
2022/07/26 10:57:00;;;;;;;7.90;5.20;;;;;;;;;;4984884;28;20713;-74
2022/07/26 10:59:33;;;;;;;11.10;5.40;;;;;;;;;;4986043;28;20222;-73
2022/07/26 11:02:00;;;;;;;9.67;5.53;;;;;;;;;;4984560;28;20236;-74
2022/07/26 11:04:27;;;;;;;10.07;5.40;;;;;;;;;;4983455;28;20668;-73
2022/07/26 11:07:00;;;;;;;9.40;5.43;;;;;;;;;;4987183;28;20303;-73
2022/07/26 11:09:34;;;;;;;7.47;5.43;;;;;;;;;;4988097;28;20205;-74
2022/07/26 11:12:15;;;;;;;10.03;5.30;;;;;;;;;;4986796;28;20586;-74
2022/07/26 11:14:44;;;;;;;8.60;4.97;;;;;;;;;;4987511;28;20205;-72
2022/07/26 11:17:23;;;;;;;7.23;4.73;;;;;;;;;;4984816;28;20568;-73
2022/07/26 11:19:50;;;;;;;7.53;4.63;;;;;;;;;;4980544;28;20654;-73
2022/07/26 11:22:17;;;;;;;10.77;5.23;;;;;;;;;;4980953;28;20212;-73
2022/07/26 11:24:44;;;;;;;11.93;5.10;;;;;;;;;;4981230;28;20216;-72
2022/07/26 11:27:12;;;;;;;14.40;5.77;;;;;;;;;;4985138;28;20301;-72
2022/07/26 11:29:39;;;;;;;8.20;4.73;;;;;;;;;;4977693;28;20656;-72
2022/07/26 11:32:17;;;;;;;9.07;5.10;;;;;;;;;;4981869;28;20206;-73
2022/07/26 11:34:44;;;;;;;11.37;5.07;;;;;;;;;;4981261;28;20588;-74
2022/07/26 11:37:11;;;;;;;11.60;5.27;;;;;;;;;;4984373;28;20200;-73
2022/07/26 11:39:39;;;;;;;7.73;4.17;;;;;;;;;;4984130;28;20205;-73
2022/07/26 11:42:07;;;;;;;6.37;4.00;;;;;;;;;;4926362;28;20312;-73
2022/07/26 11:44:34;;;;;;;8.57;4.17;;;;;;;;;;4978765;28;20758;-72
2022/07/26 11:47:10;;;;;;;6.87;4.03;;;;;;;;;;4980890;28;20702;-72
2022/07/26 11:49:39;;;;;;;5.17;3.90;;;;;;;;;;4988133;28;20204;-73
2022/07/26 11:52:06;;;;;;;5.03;3.90;;;;;;;;;;4985741;28;20211;-72
2022/07/26 11:54:34;;;;;;;9.83;3.90;;;;;;;;;;4983181;28;20223;-72
2022/07/26 11:57:02;;;;;;;7.03;4.10;;;;;;;;;;4980036;28;20252;-73
2022/07/26 11:59:31;;;;;;;6.87;3.97;;;;;;;;;;4982655;28;20216;-72
2022/07/26 12:01:58;;;;;;;7.67;3.53;;;;;;;;;;4984525;28;20209;-72
2022/07/26 12:04:26;;;;;;;4.97;3.73;;;;;;;;;;4984458;28;20319;-72
2022/07/26 12:06:56;;;;;;;8.37;3.67;;;;;;;;;;4989959;28;20690;-73
2022/07/26 12:09:30;;;;;;;8.60;3.50;;;;;;;;;;4990521;28;20208;-72
2022/07/26 12:11:57;;;;;;;6.63;4.00;;;;;;;;;;4991554;28;20701;-73
2022/07/26 12:14:28;;;;;;;7.07;3.20;;;;;;;;;;4992583;28;20208;-73
2022/07/26 12:16:55;;;;;;;5.13;3.30;;;;;;;;;;4989767;28;20726;-73
2022/07/26 12:19:24;;;;;;;7.57;3.50;;;;;;;;;;4991979;28;20202;-72
2022/07/26 12:21:52;;;;;;;7.97;4.00;;;;;;;;;;4991906;28;20225;-72
2022/07/26 12:24:38;;;;;;;5.83;3.97;;;;;;;;;;4983716;28;20365;-72
2022/07/26 12:27:06;;;;;;;5.83;3.33;;;;;;;;;;4986584;28;20283;-74
2022/07/26 12:29:35;;;;;;;12.27;4.10;;;;;;;;;;4986619;28;20296;-72
2022/07/26 12:32:06;;;;;;;7.30;4.37;;;;;;;;;;4984496;28;20206;-74
2022/07/26 12:34:34;;;;;;;8.37;3.87;;;;;;;;;;4982477;28;20212;-73
2022/07/26 12:37:11;;;;;;;6.87;3.50;;;;;;;;;;4985612;28;20200;-73
2022/07/26 12:39:40;;;;;;;6.27;4.10;;;;;;;;;;4984978;28;20954;-73
2022/07/26 12:42:24;;;;;;;7.03;4.13;;;;;;;;;;4985885;28;20304;-72
2022/07/26 12:44:51;;;;;;;12.87;4.87;;;;;;;;;;4984206;28;20284;-72
2022/07/26 12:47:18;;;;;;;9.53;4.43;;;;;;;;;;4983949;28;20209;-72
2022/07/26 12:49:46;;;;;;;9.10;4.70;;;;;;;;;;4984550;28;20288;-73
2022/07/26 12:52:14;;;;;;;5.73;4.20;;;;;;;;;;4989593;28;20727;-72
2022/07/26 12:54:43;;;;;;;6.87;4.50;;;;;;;;;;4983118;28;20590;-72
2022/07/26 12:57:10;;;;;;;8.70;4.47;;;;;;;;;;4981376;28;20202;-73
2022/07/26 12:59:37;;;;;;;8.63;4.63;;;;;;;;;;4987760;28;20293;-71
2022/07/26 13:02:04;;;;;;;8.23;4.90;;;;;;;;;;4987086;28;20209;-72
2022/07/26 13:04:32;;;;;;;9.10;4.60;;;;;;;;;;4989154;28;20311;-72
2022/07/26 13:06:59;;;;;;;8.97;4.50;;;;;;;;;;4988563;28;20222;-72
2022/07/26 13:09:26;;;;;;;9.27;4.60;;;;;;;;;;4985189;28;20317;-72
2022/07/26 13:11:55;;;;;;;7.20;4.57;;;;;;;;;;4986734;28;20305;-72
2022/07/26 13:14:22;;;;;;;6.80;4.20;;;;;;;;;;4985274;28;20202;-72
2022/07/26 13:16:49;;;;;;;8.73;4.43;;;;;;;;;;4981598;28;20217;-72
2022/07/26 13:19:16;;;;;;;7.33;4.53;;;;;;;;;;4985709;28;20210;-72
2022/07/26 13:21:44;;;;;;;7.97;4.30;;;;;;;;;;4985622;28;20221;-73
2022/07/26 13:24:11;;;;;;;8.13;4.23;;;;;;;;;;4985143;28;20226;-73
2022/07/26 13:26:38;;;;;;;9.53;4.43;;;;;;;;;;4981607;28;20237;-72
2022/07/26 13:29:06;;;;;;;8.93;4.30;;;;;;;;;;4985104;28;20295;-73
2022/07/26 13:31:34;;;;;;;8.23;4.23;;;;;;;;;;4979592;28;20418;-72
2022/07/26 13:34:01;;;;;;;8.60;4.90;;;;;;;;;;4983983;28;20201;-72
2022/07/26 13:36:28;;;;;;;11.97;4.00;;;;;;;;;;4987011;28;20222;-72
2022/07/26 13:38:55;;;;;;;10.13;4.30;;;;;;;;;;4987712;28;20748;-73
2022/07/26 13:41:22;;;;;;;6.57;3.90;;;;;;;;;;4985397;28;20666;-72
2022/07/26 13:43:51;;;;;;;5.23;3.50;;;;;;;;;;4987274;28;20245;-72
2022/07/26 13:46:20;;;;;;;6.87;3.37;;;;;;;;;;4977898;28;20238;-73
2022/07/26 13:48:47;;;;;;;5.33;3.00;;;;;;;;;;4981309;28;20234;-72
2022/07/26 13:51:15;;;;;;;4.20;2.57;;;;;;;;;;4974905;28;20279;-73
2022/07/26 13:53:42;;;;;;;4.57;2.40;;;;;;;;;;4979033;28;20205;-73
2022/07/26 13:56:09;;;;;;;5.23;2.80;;;;;;;;;;4977419;28;20296;-73
2022/07/26 13:58:36;;;;;;;4.93;2.80;;;;;;;;;;4975164;28;21491;-72
2022/07/26 14:01:04;;;;;;;8.03;3.23;;;;;;;;;;4976312;28;20264;-73
2022/07/26 14:03:32;;;;;;;11.13;4.10;;;;;;;;;;4974495;28;20207;-73
2022/07/26 14:05:59;;;;;;;7.30;3.10;;;;;;;;;;4980337;28;20225;-74
2022/07/26 14:08:27;;;;;;;7.83;3.40;;;;;;;;;;4976806;28;20205;-73
2022/07/26 14:10:54;;;;;;;7.33;3.47;;;;;;;;;;4976474;28;20290;-73
2022/07/26 14:13:21;;;;;;;8.70;3.10;;;;;;;;;;4978015;28;20207;-73
2022/07/26 14:15:48;;;;;;;5.90;3.10;;;;;;;;;;4981466;28;20239;-73
2022/07/26 14:18:15;;;;;;;9.20;2.77;;;;;;;;;;4982362;28;20277;-73
2022/07/26 14:20:44;;;;;;;6.43;3.07;;;;;;;;;;4981113;28;20288;-73
2022/07/26 14:23:11;;;;;;;4.33;2.33;;;;;;;;;;4979736;28;20213;-73
2022/07/26 14:25:38;;;;;;;10.50;2.50;;;;;;;;;;4981920;28;20239;-73
2022/07/26 14:28:06;;;;;;;8.67;2.60;;;;;;;;;;4981031;28;20679;-73
2022/07/26 14:30:34;;;;;;;4.10;2.27;;;;;;;;;;4980938;28;20205;-73
2022/07/26 14:33:01;;;;;;;9.40;2.70;;;;;;;;;;4985071;28;20663;-74
2022/07/26 14:35:28;;;;;;;5.03;2.40;;;;;;;;;;4986153;28;20654;-73
2022/07/26 14:37:57;;;;;;;6.50;2.37;;;;;;;;;;4983342;28;20201;-74
2022/07/26 14:40:24;;;;;;;7.73;2.80;;;;;;;;;;4982837;28;20297;-73
2022/07/26 14:42:51;;;;;;;9.97;2.40;;;;;;;;;;4985749;28;20213;-73
2022/07/26 14:45:18;;;;;;;13.83;2.80;;;;;;;;;;4983898;28;20221;-72